Time;durP1;ratioP1;P1;durP2;ratioP2;P2;SDS_P1;SDS_P2;PMS_P1;PMS_P2;Temp;Humidity;BMP_temperature;BMP_pressure;BME280_temperature;BME280_humidity;BME280_pressure;Samples;Min_cycle;Max_cycle;Signal;HPM_P1;HPM_P2
2021/07/14 00:01:26;;;;;;;3.75;0.85;;;;;;;;;;4998240;28;20557;-69
2021/07/14 00:03:53;;;;;;;4.85;0.75;;;;;;;;;;5005330;28;20033;-68
2021/07/14 00:06:20;;;;;;;1.67;0.77;;;;;;;;;;5004747;28;20018;-69
2021/07/14 00:08:48;;;;;;;1.58;1.10;;;;;;;;;;5010572;28;20080;-69
2021/07/14 00:11:15;;;;;;;2.75;1.08;;;;;;;;;;5008931;28;20018;-69
2021/07/14 00:13:59;;;;;;;1.73;0.93;;;;;;;;;;5007834;28;20026;-69
2021/07/14 00:22:13;;;;;;;1.25;0.60;;;;;;;;;;5012056;28;20095;-69
2021/07/14 00:24:41;;;;;;;1.57;0.70;;;;;;;;;;5013290;28;20080;-69
2021/07/14 00:27:10;;;;;;;1.33;0.80;;;;;;;;;;5008322;28;20121;-69
2021/07/14 00:29:47;;;;;;;1.38;0.68;;;;;;;;;;5011327;28;20050;-69
2021/07/14 00:32:15;;;;;;;2.80;0.73;;;;;;;;;;5009897;28;20465;-69
2021/07/14 00:34:42;;;;;;;1.50;0.73;;;;;;;;;;5011683;28;20033;-69
2021/07/14 00:37:09;;;;;;;2.20;0.60;;;;;;;;;;5011726;28;20545;-69
2021/07/14 00:39:36;;;;;;;3.10;0.60;;;;;;;;;;5013707;28;20034;-69
2021/07/14 00:42:04;;;;;;;3.22;0.65;;;;;;;;;;5011079;28;20029;-69
2021/07/14 00:44:32;;;;;;;1.55;0.63;;;;;;;;;;5014008;28;20021;-69
2021/07/14 00:47:01;;;;;;;4.68;0.60;;;;;;;;;;5012883;28;20026;-70
2021/07/14 00:49:29;;;;;;;2.60;0.50;;;;;;;;;;5013638;28;20030;-70
2021/07/14 00:51:56;;;;;;;4.93;0.85;;;;;;;;;;5011531;28;20026;-70
2021/07/14 00:54:23;;;;;;;3.10;0.75;;;;;;;;;;5013552;28;20498;-69
2021/07/14 00:56:51;;;;;;;5.18;0.95;;;;;;;;;;5012486;28;20026;-70
2021/07/14 00:59:21;;;;;;;3.28;0.50;;;;;;;;;;5011524;28;20038;-71
2021/07/14 01:01:48;;;;;;;1.27;0.63;;;;;;;;;;5007041;28;20460;-70
2021/07/14 01:04:19;;;;;;;1.30;0.50;;;;;;;;;;4995224;28;20041;-69
2021/07/14 01:06:52;;;;;;;1.58;0.65;;;;;;;;;;5010306;28;20025;-70
2021/07/14 01:09:25;;;;;;;2.53;0.43;;;;;;;;;;5013496;28;20049;-69
2021/07/14 01:11:54;;;;;;;1.70;0.57;;;;;;;;;;5011315;28;20030;-70
2021/07/14 01:14:23;;;;;;;2.35;0.50;;;;;;;;;;5012462;28;20510;-69
2021/07/14 01:17:10;;;;;;;2.97;1.75;;;;;;;;;;5009902;28;20682;-69
2021/07/14 01:19:53;;;;;;;1.70;0.40;;;;;;;;;;5003546;28;20026;-70
2021/07/14 01:22:32;;;;;;;1.40;0.40;;;;;;;;;;5011522;28;20079;-69
2021/07/14 01:25:12;;;;;;;2.53;0.57;;;;;;;;;;5013305;28;20479;-69
2021/07/14 01:27:39;;;;;;;2.38;0.70;;;;;;;;;;5010377;28;20034;-70
2021/07/14 01:30:10;;;;;;;2.17;1.20;;;;;;;;;;5000275;28;20065;-69
2021/07/14 01:32:39;;;;;;;1.02;0.50;;;;;;;;;;5012468;28;20100;-70
2021/07/14 01:35:09;;;;;;;2.70;0.50;;;;;;;;;;5013620;28;20029;-70
2021/07/14 01:37:37;;;;;;;2.00;0.40;;;;;;;;;;5013083;28;20041;-69
2021/07/14 01:40:06;;;;;;;1.35;0.50;;;;;;;;;;5013054;28;20168;-69
2021/07/14 01:42:34;;;;;;;1.80;0.60;;;;;;;;;;5008158;28;20033;-69
2021/07/14 01:45:01;;;;;;;1.08;0.30;;;;;;;;;;4992655;28;20038;-70
2021/07/14 01:47:29;;;;;;;1.52;0.60;;;;;;;;;;5009992;28;20026;-70
2021/07/14 01:49:58;;;;;;;2.10;0.50;;;;;;;;;;5008657;28;20494;-69
2021/07/14 01:52:26;;;;;;;0.63;0.30;;;;;;;;;;5011410;28;20084;-70
2021/07/14 01:54:55;;;;;;;5.78;0.98;;;;;;;;;;5013291;28;20061;-69
2021/07/14 01:57:22;;;;;;;1.48;0.40;;;;;;;;;;5010686;28;20034;-71
2021/07/14 01:59:50;;;;;;;0.98;0.40;;;;;;;;;;5012087;28;20077;-69
2021/07/14 02:02:20;;;;;;;4.00;0.65;;;;;;;;;;5009359;28;20026;-69
2021/07/14 02:04:47;;;;;;;1.00;0.50;;;;;;;;;;5011809;28;20087;-69
2021/07/14 02:07:15;;;;;;;2.67;0.70;;;;;;;;;;5008296;28;20406;-69
2021/07/14 02:09:46;;;;;;;1.15;0.50;;;;;;;;;;5008836;28;20085;-69
2021/07/14 02:12:15;;;;;;;3.35;0.50;;;;;;;;;;5001938;28;20099;-70
2021/07/14 02:15:01;;;;;;;2.33;0.70;;;;;;;;;;4992965;28;20112;-69
2021/07/14 02:17:35;;;;;;;2.53;0.47;;;;;;;;;;5010006;28;20041;-69
2021/07/14 02:20:22;;;;;;;1.23;0.45;;;;;;;;;;5006317;28;20057;-69
2021/07/14 02:22:50;;;;;;;1.80;0.63;;;;;;;;;;5002450;28;20471;-70
2021/07/14 02:25:18;;;;;;;1.80;0.47;;;;;;;;;;5010330;28;20025;-69
2021/07/14 02:27:45;;;;;;;1.17;0.30;;;;;;;;;;5011478;28;20045;-70
2021/07/14 02:30:18;;;;;;;1.45;0.43;;;;;;;;;;5007145;28;20072;-69
2021/07/14 02:32:53;;;;;;;2.63;0.60;;;;;;;;;;5019541;28;20018;-70
2021/07/14 02:35:21;;;;;;;2.72;0.52;;;;;;;;;;5008078;28;20038;-70
2021/07/14 02:37:48;;;;;;;4.95;0.57;;;;;;;;;;5009714;28;20072;-70
2021/07/14 02:40:17;;;;;;;2.50;0.60;;;;;;;;;;5009625;28;20490;-69
2021/07/14 02:42:46;;;;;;;4.47;0.90;;;;;;;;;;5010440;28;20032;-69
2021/07/14 02:45:13;;;;;;;1.95;0.60;;;;;;;;;;5009032;28;20041;-69
2021/07/14 02:47:41;;;;;;;2.13;0.80;;;;;;;;;;5009482;28;20076;-69
2021/07/14 02:50:16;;;;;;;3.08;0.70;;;;;;;;;;5006468;28;20034;-68
2021/07/14 02:52:46;;;;;;;3.88;0.77;;;;;;;;;;5010815;28;20497;-68
2021/07/14 02:55:15;;;;;;;2.42;0.50;;;;;;;;;;5008596;28;20058;-68
2021/07/14 02:57:44;;;;;;;3.05;1.00;;;;;;;;;;5011208;28;20026;-69
2021/07/14 03:00:11;;;;;;;3.35;1.15;;;;;;;;;;5010335;28;20045;-69
2021/07/14 03:02:40;;;;;;;2.85;0.85;;;;;;;;;;5006350;28;20105;-69
2021/07/14 03:05:08;;;;;;;2.97;0.82;;;;;;;;;;5010504;28;20018;-69
2021/07/14 03:07:36;;;;;;;2.15;1.15;;;;;;;;;;5007016;28;20034;-69
2021/07/14 03:10:04;;;;;;;4.35;2.33;;;;;;;;;;5010214;28;20487;-68
2021/07/14 03:12:31;;;;;;;2.67;1.35;;;;;;;;;;5009018;28;20028;-67
2021/07/14 03:15:00;;;;;;;2.08;0.90;;;;;;;;;;5008667;28;20097;-68
2021/07/14 03:17:29;;;;;;;2.28;1.10;;;;;;;;;;5006159;28;20029;-69
2021/07/14 03:19:56;;;;;;;6.18;1.80;;;;;;;;;;5011308;28;20026;-69
2021/07/14 03:22:24;;;;;;;2.85;1.10;;;;;;;;;;5009837;28;20029;-69
2021/07/14 03:24:51;;;;;;;5.63;1.20;;;;;;;;;;5009256;28;20038;-70
2021/07/14 03:27:19;;;;;;;3.55;1.60;;;;;;;;;;5008567;28;20026;-69
2021/07/14 03:29:47;;;;;;;5.55;1.98;;;;;;;;;;5003563;28;20083;-69
2021/07/14 03:32:14;;;;;;;7.10;1.67;;;;;;;;;;5001957;28;20037;-70
2021/07/14 03:34:42;;;;;;;2.63;1.38;;;;;;;;;;4993390;28;20552;-68
2021/07/14 03:37:09;;;;;;;6.07;1.77;;;;;;;;;;5006436;28;20069;-69
2021/07/14 03:39:38;;;;;;;5.43;1.33;;;;;;;;;;5009734;28;20033;-69
2021/07/14 03:42:06;;;;;;;4.72;1.38;;;;;;;;;;5009943;28;20026;-69
2021/07/14 03:44:35;;;;;;;3.38;1.40;;;;;;;;;;4974597;28;20030;-67
2021/07/14 03:47:02;;;;;;;5.70;1.77;;;;;;;;;;5007586;28;20046;-68
2021/07/14 03:49:30;;;;;;;4.38;1.45;;;;;;;;;;5012249;28;20044;-67
2021/07/14 03:51:58;;;;;;;3.80;1.70;;;;;;;;;;5013631;28;20509;-67
2021/07/14 03:54:27;;;;;;;4.82;1.73;;;;;;;;;;5013356;28;20037;-69
2021/07/14 03:56:55;;;;;;;5.38;1.73;;;;;;;;;;5013217;28;20033;-68
2021/07/14 03:59:22;;;;;;;4.32;1.40;;;;;;;;;;5009185;28;20398;-69
2021/07/14 04:01:50;;;;;;;4.80;1.85;;;;;;;;;;5009434;28;20026;-69
2021/07/14 04:04:17;;;;;;;4.65;1.65;;;;;;;;;;5009962;28;20037;-69
2021/07/14 04:06:46;;;;;;;4.95;2.08;;;;;;;;;;5012543;28;20132;-68
2021/07/14 04:09:19;;;;;;;4.03;1.52;;;;;;;;;;5004277;28;20050;-68
2021/07/14 04:11:48;;;;;;;4.10;1.58;;;;;;;;;;5006103;28;20113;-68
2021/07/14 04:14:15;;;;;;;5.70;1.63;;;;;;;;;;5008342;28;20378;-69
2021/07/14 04:16:42;;;;;;;5.82;1.70;;;;;;;;;;4992368;28;20029;-69
2021/07/14 04:19:09;;;;;;;5.50;1.95;;;;;;;;;;5007019;28;20514;-69
2021/07/14 04:21:37;;;;;;;10.25;2.55;;;;;;;;;;5009542;28;20036;-69
2021/07/14 04:24:05;;;;;;;5.03;1.85;;;;;;;;;;5010138;28;20018;-69
2021/07/14 04:26:32;;;;;;;3.35;1.45;;;;;;;;;;5007394;28;20133;-69
2021/07/14 04:28:59;;;;;;;3.95;1.52;;;;;;;;;;5010305;28;20080;-68
2021/07/14 04:31:26;;;;;;;5.40;1.70;;;;;;;;;;5008637;28;20022;-68
2021/07/14 04:33:53;;;;;;;7.75;2.30;;;;;;;;;;5009714;28;20113;-68
2021/07/14 04:36:21;;;;;;;7.10;2.53;;;;;;;;;;5009057;28;20046;-69
2021/07/14 04:38:48;;;;;;;9.07;3.58;;;;;;;;;;5010494;28;20108;-68
2021/07/14 04:41:15;;;;;;;5.82;2.25;;;;;;;;;;5006784;28;20051;-68
2021/07/14 04:43:42;;;;;;;4.88;2.65;;;;;;;;;;5007897;28;20035;-68
2021/07/14 04:46:10;;;;;;;5.30;2.50;;;;;;;;;;5002402;28;20033;-68
2021/07/14 04:48:37;;;;;;;5.53;2.45;;;;;;;;;;5010212;28;20030;-69
2021/07/14 04:51:04;;;;;;;6.32;2.72;;;;;;;;;;5006972;28;20034;-69
2021/07/14 04:53:31;;;;;;;5.10;2.35;;;;;;;;;;5010796;28;20022;-69
2021/07/14 04:55:59;;;;;;;7.95;2.20;;;;;;;;;;5006055;28;20491;-68
2021/07/14 04:58:27;;;;;;;6.53;2.70;;;;;;;;;;5008829;28;20041;-69
2021/07/14 05:00:54;;;;;;;6.28;2.83;;;;;;;;;;5003916;28;20030;-68
2021/07/14 05:03:23;;;;;;;6.88;2.88;;;;;;;;;;5007346;28;20073;-69
2021/07/14 05:05:50;;;;;;;7.45;4.15;;;;;;;;;;5003408;28;20017;-69
2021/07/14 05:08:18;;;;;;;9.75;4.40;;;;;;;;;;5009875;28;20088;-68
2021/07/14 05:10:48;;;;;;;6.68;3.83;;;;;;;;;;4997169;28;20033;-69
2021/07/14 05:13:16;;;;;;;7.70;4.13;;;;;;;;;;5013005;28;20097;-69
2021/07/14 05:15:47;;;;;;;12.65;4.43;;;;;;;;;;5008500;28;20022;-69
2021/07/14 05:18:14;;;;;;;13.77;4.55;;;;;;;;;;5012908;28;20025;-69
2021/07/14 05:20:42;;;;;;;10.40;3.90;;;;;;;;;;5008436;28;20083;-69
2021/07/14 05:23:09;;;;;;;11.80;4.07;;;;;;;;;;5012565;28;20060;-68
2021/07/14 05:25:36;;;;;;;6.90;3.10;;;;;;;;;;5010894;28;20034;-69
2021/07/14 05:28:04;;;;;;;13.68;3.85;;;;;;;;;;4994998;28;20082;-69
2021/07/14 05:30:31;;;;;;;10.57;3.55;;;;;;;;;;5010625;28;20379;-70
2021/07/14 05:32:58;;;;;;;10.00;3.17;;;;;;;;;;5011290;28;20441;-69
2021/07/14 05:35:26;;;;;;;7.85;3.40;;;;;;;;;;5007860;28;20014;-69
2021/07/14 05:37:53;;;;;;;9.82;3.60;;;;;;;;;;4994495;28;20422;-69
2021/07/14 05:40:20;;;;;;;7.20;3.78;;;;;;;;;;5009808;28;20546;-68
2021/07/14 05:42:47;;;;;;;7.38;3.45;;;;;;;;;;5007721;28;20029;-68
2021/07/14 05:45:15;;;;;;;10.77;3.25;;;;;;;;;;5008251;28;20034;-68
2021/07/14 05:47:42;;;;;;;10.45;3.55;;;;;;;;;;5008254;28;20479;-68
2021/07/14 05:50:10;;;;;;;10.07;3.90;;;;;;;;;;5009839;28;20037;-68
2021/07/14 05:52:37;;;;;;;6.25;3.08;;;;;;;;;;4991719;28;20034;-67
2021/07/14 05:55:05;;;;;;;7.35;3.13;;;;;;;;;;5009046;28;20061;-68
2021/07/14 05:57:33;;;;;;;5.22;2.35;;;;;;;;;;5009717;28;20029;-69
2021/07/14 06:00:00;;;;;;;7.22;2.92;;;;;;;;;;5000034;28;20670;-68
2021/07/14 06:02:27;;;;;;;5.13;2.60;;;;;;;;;;5009478;28;20384;-68
2021/07/14 06:04:54;;;;;;;6.60;2.72;;;;;;;;;;5011558;28;20087;-68
2021/07/14 06:07:22;;;;;;;4.70;2.00;;;;;;;;;;5006091;28;20368;-68
2021/07/14 06:09:49;;;;;;;5.43;2.63;;;;;;;;;;5011305;28;20046;-69
2021/07/14 06:12:16;;;;;;;4.30;2.13;;;;;;;;;;5009559;28;20034;-68
2021/07/14 06:14:45;;;;;;;4.85;2.58;;;;;;;;;;5011550;28;20486;-68
2021/07/14 06:17:12;;;;;;;7.85;2.65;;;;;;;;;;5010200;28;20033;-67
2021/07/14 06:19:39;;;;;;;4.75;2.53;;;;;;;;;;5011901;28;20062;-67
2021/07/14 06:22:06;;;;;;;7.47;3.25;;;;;;;;;;5008533;28;20026;-68
2021/07/14 06:24:34;;;;;;;5.93;3.20;;;;;;;;;;4992549;28;20478;-67
2021/07/14 06:27:01;;;;;;;4.30;2.80;;;;;;;;;;5008429;28;20101;-67
2021/07/14 06:29:28;;;;;;;5.95;3.17;;;;;;;;;;4989041;28;20034;-68
2021/07/14 06:31:55;;;;;;;4.75;2.90;;;;;;;;;;5010425;28;20026;-68
2021/07/14 06:34:24;;;;;;;4.00;1.88;;;;;;;;;;4992388;28;20482;-67
2021/07/14 06:36:51;;;;;;;6.55;2.28;;;;;;;;;;5010032;28;20686;-68
2021/07/14 06:39:18;;;;;;;3.70;1.85;;;;;;;;;;4994314;28;20037;-68
2021/07/14 06:41:46;;;;;;;4.85;1.80;;;;;;;;;;5010560;28;20026;-67
2021/07/14 06:44:13;;;;;;;3.38;1.75;;;;;;;;;;5012279;28;20558;-68
2021/07/14 06:46:40;;;;;;;3.55;2.20;;;;;;;;;;5009070;28;20044;-68
2021/07/14 06:49:07;;;;;;;4.10;1.63;;;;;;;;;;5010708;28;20033;-68
2021/07/14 06:51:34;;;;;;;5.97;2.38;;;;;;;;;;5009814;28;20022;-68
2021/07/14 06:54:01;;;;;;;4.10;2.00;;;;;;;;;;5007598;28;20026;-68
2021/07/14 06:56:28;;;;;;;6.10;1.95;;;;;;;;;;5009632;28;20038;-68
2021/07/14 06:58:55;;;;;;;4.70;1.88;;;;;;;;;;5010570;28;20025;-68
2021/07/14 07:01:23;;;;;;;3.72;1.88;;;;;;;;;;5009831;28;20097;-68
2021/07/14 07:03:50;;;;;;;4.55;1.65;;;;;;;;;;5010719;28;20148;-68
2021/07/14 07:06:17;;;;;;;6.07;1.63;;;;;;;;;;5009741;28;20061;-68
2021/07/14 07:08:44;;;;;;;3.33;1.50;;;;;;;;;;5010229;28;20054;-68
2021/07/14 07:11:11;;;;;;;4.25;2.05;;;;;;;;;;5007046;28;20026;-68
2021/07/14 07:13:38;;;;;;;5.28;1.38;;;;;;;;;;5011403;28;20045;-68
2021/07/14 07:16:06;;;;;;;3.88;1.50;;;;;;;;;;5005927;28;20026;-68
2021/07/14 07:18:33;;;;;;;3.75;1.35;;;;;;;;;;5011711;28;20029;-68
2021/07/14 07:21:01;;;;;;;2.30;1.30;;;;;;;;;;5010060;28;20022;-69
2021/07/14 07:23:28;;;;;;;3.10;1.60;;;;;;;;;;5007268;28;20068;-69
2021/07/14 07:25:57;;;;;;;2.30;1.30;;;;;;;;;;5012066;28;20434;-68
2021/07/14 07:28:32;;;;;;;6.60;1.52;;;;;;;;;;5012942;28;20026;-68
2021/07/14 07:30:59;;;;;;;3.78;1.65;;;;;;;;;;5007405;28;20077;-69
2021/07/14 07:33:26;;;;;;;5.05;1.20;;;;;;;;;;5015250;28;20026;-69
2021/07/14 07:35:53;;;;;;;2.85;1.50;;;;;;;;;;5014019;28;20057;-69
2021/07/14 07:38:20;;;;;;;2.72;1.45;;;;;;;;;;5014463;28;20029;-68
2021/07/14 07:40:51;;;;;;;4.80;1.52;;;;;;;;;;5012751;28;20025;-69
2021/07/14 07:43:18;;;;;;;2.83;1.25;;;;;;;;;;5013870;28;20034;-68
2021/07/14 07:45:45;;;;;;;9.77;3.35;;;;;;;;;;5013858;28;20045;-68
2021/07/14 07:48:12;;;;;;;4.95;1.45;;;;;;;;;;5011595;28;20037;-67
2021/07/14 07:50:40;;;;;;;6.68;2.28;;;;;;;;;;5009967;28;20044;-70
2021/07/14 07:53:07;;;;;;;3.47;1.40;;;;;;;;;;4994527;28;20124;-68
2021/07/14 07:55:34;;;;;;;6.13;1.85;;;;;;;;;;5013266;28;20494;-68
2021/07/14 07:58:01;;;;;;;4.20;2.13;;;;;;;;;;5011885;28;20037;-68
2021/07/14 08:00:28;;;;;;;2.67;1.30;;;;;;;;;;5010450;28;20116;-67
2021/07/14 08:02:56;;;;;;;2.60;1.23;;;;;;;;;;5010238;28;20045;-69
2021/07/14 08:05:23;;;;;;;3.58;1.50;;;;;;;;;;5010670;28;20030;-68
2021/07/14 08:07:51;;;;;;;4.50;1.58;;;;;;;;;;5011877;28;20029;-69
2021/07/14 08:10:19;;;;;;;3.78;1.42;;;;;;;;;;4994035;28;20041;-68
2021/07/14 08:12:46;;;;;;;5.53;1.23;;;;;;;;;;5009229;28;20032;-68
2021/07/14 08:15:13;;;;;;;3.17;1.50;;;;;;;;;;5011510;28;20574;-69
2021/07/14 08:17:40;;;;;;;7.07;3.03;;;;;;;;;;5009692;28;20037;-70
2021/07/14 08:20:09;;;;;;;42.05;12.23;;;;;;;;;;5011382;28;20431;-69
2021/07/14 08:22:36;;;;;;;22.02;6.13;;;;;;;;;;5018035;28;20026;-69
2021/07/14 08:25:04;;;;;;;12.88;4.80;;;;;;;;;;5033674;28;20028;-69
2021/07/14 08:27:31;;;;;;;4.00;1.38;;;;;;;;;;5033810;28;20064;-69
2021/07/14 08:30:04;;;;;;;6.45;2.33;;;;;;;;;;5011848;28;20076;-69
2021/07/14 08:32:31;;;;;;;4.38;1.30;;;;;;;;;;5025456;28;20031;-69
2021/07/14 08:34:59;;;;;;;4.53;1.17;;;;;;;;;;5019566;28;20017;-69
2021/07/14 08:37:27;;;;;;;3.67;1.55;;;;;;;;;;5004951;28;20030;-70
2021/07/14 08:39:55;;;;;;;2.75;1.60;;;;;;;;;;5005994;28;20109;-68
2021/07/14 08:42:22;;;;;;;3.45;1.65;;;;;;;;;;5008551;28;20498;-70
2021/07/14 08:44:50;;;;;;;7.00;1.73;;;;;;;;;;5025755;28;20091;-70
2021/07/14 08:47:17;;;;;;;3.13;1.23;;;;;;;;;;5022669;28;20124;-70
2021/07/14 08:49:47;;;;;;;3.35;1.67;;;;;;;;;;5020333;28;20484;-70
2021/07/14 08:52:15;;;;;;;4.13;1.60;;;;;;;;;;5023417;28;20076;-71
2021/07/14 08:54:42;;;;;;;6.57;2.28;;;;;;;;;;5014790;28;20033;-70
2021/07/14 08:57:19;;;;;;;4.68;1.38;;;;;;;;;;5021327;28;20021;-70
2021/07/14 08:59:47;;;;;;;3.70;1.05;;;;;;;;;;5011149;28;20037;-70
2021/07/14 09:02:14;;;;;;;1.60;1.27;;;;;;;;;;5028219;28;20451;-70
2021/07/14 09:04:42;;;;;;;1.83;0.95;;;;;;;;;;5027493;28;20032;-70
2021/07/14 09:07:09;;;;;;;3.00;1.15;;;;;;;;;;5021467;28;20037;-70
2021/07/14 09:09:38;;;;;;;3.53;1.23;;;;;;;;;;5025173;28;20057;-70
2021/07/14 09:12:09;;;;;;;3.42;1.33;;;;;;;;;;5029895;28;20017;-70
2021/07/14 09:14:37;;;;;;;4.88;0.90;;;;;;;;;;5020410;28;20036;-70
2021/07/14 09:17:25;;;;;;;2.38;1.20;;;;;;;;;;5025338;28;20104;-70
2021/07/14 09:19:54;;;;;;;2.58;1.30;;;;;;;;;;5025227;28;20033;-70
2021/07/14 09:22:23;;;;;;;2.90;0.90;;;;;;;;;;5005101;28;20379;-69
2021/07/14 09:24:55;;;;;;;1.77;0.80;;;;;;;;;;5018866;28;20034;-69
2021/07/14 09:27:35;;;;;;;1.98;1.00;;;;;;;;;;5019829;28;20050;-69
2021/07/14 09:30:06;;;;;;;3.40;1.20;;;;;;;;;;5025488;28;20057;-70
2021/07/14 09:32:44;;;;;;;1.40;0.73;;;;;;;;;;5024122;28;20507;-70
2021/07/14 09:35:11;;;;;;;5.05;1.00;;;;;;;;;;5007934;28;20033;-70
2021/07/14 09:37:38;;;;;;;4.43;0.75;;;;;;;;;;4995903;28;20026;-70
2021/07/14 09:40:15;;;;;;;2.53;1.15;;;;;;;;;;5006542;28;20072;-69
2021/07/14 09:43:02;;;;;;;4.05;1.17;;;;;;;;;;5004941;28;20161;-69
2021/07/14 09:45:39;;;;;;;4.82;1.35;;;;;;;;;;5007307;28;20429;-70
2021/07/14 09:48:07;;;;;;;4.75;2.05;;;;;;;;;;5015657;28;20030;-69
2021/07/14 09:50:46;;;;;;;1.85;1.10;;;;;;;;;;5002668;28;20026;-68
2021/07/14 09:53:16;;;;;;;2.72;0.70;;;;;;;;;;5002704;28;20026;-68
2021/07/14 09:55:43;;;;;;;4.38;0.70;;;;;;;;;;5006007;28;20054;-68
2021/07/14 09:58:11;;;;;;;5.03;1.25;;;;;;;;;;5010181;28;20029;-69
2021/07/14 10:00:39;;;;;;;4.15;0.65;;;;;;;;;;5005443;28;20022;-69
2021/07/14 10:03:06;;;;;;;1.77;0.60;;;;;;;;;;4999745;28;20014;-69
2021/07/14 10:05:34;;;;;;;3.42;0.98;;;;;;;;;;4991845;28;20039;-68
2021/07/14 10:08:17;;;;;;;3.05;1.33;;;;;;;;;;4992490;28;20561;-70
2021/07/14 10:10:44;;;;;;;3.10;1.42;;;;;;;;;;5012552;28;20030;-68
2021/07/14 10:13:12;;;;;;;3.38;0.70;;;;;;;;;;4993375;28;20065;-68
2021/07/14 10:15:39;;;;;;;2.75;0.98;;;;;;;;;;5011897;28;20022;-69
2021/07/14 10:18:11;;;;;;;4.40;0.90;;;;;;;;;;5011704;28;20036;-69
2021/07/14 10:20:40;;;;;;;3.15;1.15;;;;;;;;;;5025159;28;20180;-69
2021/07/14 10:23:17;;;;;;;2.35;1.08;;;;;;;;;;5015044;28;20410;-68
2021/07/14 10:25:45;;;;;;;3.75;1.58;;;;;;;;;;5025617;28;20055;-69
2021/07/14 10:28:13;;;;;;;4.03;1.65;;;;;;;;;;5031545;28;20025;-69
2021/07/14 10:30:41;;;;;;;3.13;1.08;;;;;;;;;;5009480;28;20060;-68
2021/07/14 10:33:12;;;;;;;4.07;2.08;;;;;;;;;;4997597;28;20026;-69
2021/07/14 10:35:43;;;;;;;4.57;1.55;;;;;;;;;;4999920;28;20179;-69
2021/07/14 10:38:15;;;;;;;3.63;1.70;;;;;;;;;;4982461;28;20073;-68
2021/07/14 10:40:43;;;;;;;3.67;1.40;;;;;;;;;;5008064;28;20108;-69
2021/07/14 10:43:11;;;;;;;3.17;1.25;;;;;;;;;;4988627;28;20026;-69
2021/07/14 10:45:38;;;;;;;2.38;1.15;;;;;;;;;;4992421;28;20022;-69
2021/07/14 10:48:05;;;;;;;2.15;1.25;;;;;;;;;;5001127;28;20398;-69
2021/07/14 10:50:32;;;;;;;2.58;1.20;;;;;;;;;;5011648;28;20454;-70
2021/07/14 10:53:00;;;;;;;3.15;1.80;;;;;;;;;;4997871;28;20038;-69
2021/07/14 10:55:28;;;;;;;4.03;2.20;;;;;;;;;;5004943;28;20022;-70
2021/07/14 10:57:56;;;;;;;3.58;1.65;;;;;;;;;;5012704;28;20035;-67
2021/07/14 11:00:23;;;;;;;5.53;1.83;;;;;;;;;;5022784;28;20117;-67
2021/07/14 11:02:51;;;;;;;2.88;1.88;;;;;;;;;;5028810;28;20057;-68
2021/07/14 11:05:32;;;;;;;3.75;1.48;;;;;;;;;;5008574;28;20029;-68
2021/07/14 11:07:59;;;;;;;2.90;1.20;;;;;;;;;;5012426;28;20021;-68
2021/07/14 11:10:27;;;;;;;3.20;1.42;;;;;;;;;;5004981;28;20525;-69
2021/07/14 11:12:56;;;;;;;5.00;1.10;;;;;;;;;;5001777;28;20026;-69
2021/07/14 11:15:29;;;;;;;2.33;1.23;;;;;;;;;;4990726;28;20383;-68
2021/07/14 11:17:57;;;;;;;2.38;1.20;;;;;;;;;;5007278;28;20022;-68
2021/07/14 11:20:36;;;;;;;4.65;1.75;;;;;;;;;;4990040;28;20137;-70
2021/07/14 11:23:25;;;;;;;3.83;1.40;;;;;;;;;;4984105;28;20042;-69
2021/07/14 11:25:55;;;;;;;2.50;1.25;;;;;;;;;;4999393;28;20022;-69
2021/07/14 11:28:22;;;;;;;3.95;1.30;;;;;;;;;;4994665;28;20083;-68
2021/07/14 11:30:51;;;;;;;2.72;1.60;;;;;;;;;;4991673;28;20088;-69
2021/07/14 11:33:19;;;;;;;3.10;1.40;;;;;;;;;;4992006;28;20602;-69
2021/07/14 11:35:49;;;;;;;3.10;1.20;;;;;;;;;;4996794;28;20116;-69
2021/07/14 11:38:18;;;;;;;3.45;1.25;;;;;;;;;;5009450;28;20428;-69
2021/07/14 11:40:49;;;;;;;3.22;1.38;;;;;;;;;;5009736;28;20037;-69
2021/07/14 11:43:19;;;;;;;2.85;1.52;;;;;;;;;;5009461;28;20499;-69
2021/07/14 11:45:50;;;;;;;2.40;1.10;;;;;;;;;;5010024;28;20041;-69
2021/07/14 11:48:26;;;;;;;3.05;1.58;;;;;;;;;;4992278;28;20042;-69
2021/07/14 11:50:56;;;;;;;3.90;1.38;;;;;;;;;;5009604;28;20029;-69
2021/07/14 11:53:34;;;;;;;2.97;1.35;;;;;;;;;;5008170;28;20049;-69
2021/07/14 11:56:06;;;;;;;3.03;1.30;;;;;;;;;;5008163;28;20022;-69
2021/07/14 11:58:52;;;;;;;5.45;1.67;;;;;;;;;;4993536;28;20073;-68
2021/07/14 12:01:21;;;;;;;3.88;1.45;;;;;;;;;;5007118;28;20100;-68
2021/07/14 12:04:07;;;;;;;4.80;1.67;;;;;;;;;;5009267;28;20034;-69
2021/07/14 12:06:44;;;;;;;4.88;2.03;;;;;;;;;;5009780;28;20026;-68
2021/07/14 12:09:14;;;;;;;2.63;1.77;;;;;;;;;;5007407;28;20145;-68
2021/07/14 12:11:46;;;;;;;2.65;1.83;;;;;;;;;;4993766;28;20080;-69
2021/07/14 12:14:16;;;;;;;5.50;1.77;;;;;;;;;;4999161;28;20025;-69
2021/07/14 12:16:50;;;;;;;3.55;1.90;;;;;;;;;;5012951;28;20045;-69
2021/07/14 12:19:21;;;;;;;6.15;2.10;;;;;;;;;;5008027;28;20022;-69
2021/07/14 12:21:48;;;;;;;6.28;1.85;;;;;;;;;;5006446;28;20038;-69
2021/07/14 12:24:29;;;;;;;4.80;1.67;;;;;;;;;;5014153;28;20018;-69
2021/07/14 12:27:04;;;;;;;4.63;2.10;;;;;;;;;;5012660;28;20041;-69
2021/07/14 12:29:31;;;;;;;5.78;2.20;;;;;;;;;;5008783;28;20084;-70
2021/07/14 12:31:59;;;;;;;5.80;2.83;;;;;;;;;;5009014;28;20159;-69
2021/07/14 12:34:27;;;;;;;5.93;2.45;;;;;;;;;;5012608;28;20029;-69
2021/07/14 12:36:54;;;;;;;6.70;2.20;;;;;;;;;;5008600;28;20061;-69
2021/07/14 12:39:32;;;;;;;5.53;1.98;;;;;;;;;;5011708;28;20026;-69
2021/07/14 12:42:00;;;;;;;2.47;1.83;;;;;;;;;;5012082;28;20447;-69
2021/07/14 12:44:27;;;;;;;6.75;2.65;;;;;;;;;;4996320;28;20030;-69
2021/07/14 12:46:55;;;;;;;4.32;2.15;;;;;;;;;;5010990;28;20367;-68
2021/07/14 12:49:23;;;;;;;7.82;2.05;;;;;;;;;;5012244;28;20026;-69
2021/07/14 12:52:03;;;;;;;6.63;2.30;;;;;;;;;;5008944;28;20030;-69
2021/07/14 12:54:31;;;;;;;7.93;2.10;;;;;;;;;;5012760;28;20105;-69
2021/07/14 12:57:22;;;;;;;5.20;2.42;;;;;;;;;;4995170;28;20034;-69
2021/07/14 12:59:52;;;;;;;6.13;1.90;;;;;;;;;;5012579;28;20025;-69
2021/07/14 13:02:20;;;;;;;7.10;2.25;;;;;;;;;;5012098;28;20441;-68
2021/07/14 13:04:48;;;;;;;7.72;1.95;;;;;;;;;;4996221;28;20076;-69
2021/07/14 13:07:22;;;;;;;9.65;1.90;;;;;;;;;;5013881;28;20026;-69
2021/07/14 13:09:50;;;;;;;7.60;2.10;;;;;;;;;;5012115;28;20049;-69
2021/07/14 13:12:18;;;;;;;3.63;1.48;;;;;;;;;;5009508;28;20017;-68
2021/07/14 13:14:50;;;;;;;6.78;2.40;;;;;;;;;;5011370;28;20053;-68
2021/07/14 13:17:26;;;;;;;5.80;1.85;;;;;;;;;;4993669;28;20037;-68
2021/07/14 13:20:00;;;;;;;6.25;2.45;;;;;;;;;;5010937;28;20040;-68
2021/07/14 13:22:27;;;;;;;4.90;1.92;;;;;;;;;;5011586;28;20022;-68
2021/07/14 13:25:05;;;;;;;6.05;2.20;;;;;;;;;;5013447;28;20024;-69
2021/07/14 13:27:39;;;;;;;6.35;2.05;;;;;;;;;;5010796;28;20034;-69
2021/07/14 13:30:24;;;;;;;4.72;2.08;;;;;;;;;;5008715;28;20482;-69
2021/07/14 13:32:55;;;;;;;7.25;2.25;;;;;;;;;;5007571;28;20049;-69
2021/07/14 13:35:23;;;;;;;6.47;2.33;;;;;;;;;;5008942;28;20026;-69
2021/07/14 13:37:51;;;;;;;11.13;2.15;;;;;;;;;;5012823;28;20061;-69
2021/07/14 13:40:25;;;;;;;7.10;1.80;;;;;;;;;;5008485;28;20053;-69
2021/07/14 13:42:52;;;;;;;;;;;;;;;;;;5010769;28;20028;-69
2021/07/14 13:45:29;;;;;;;6.22;1.70;;;;;;;;;;5009281;28;19916;-69
2021/07/14 13:47:57;;;;;;;5.28;2.22;;;;;;;;;;5008895;28;20034;-68
2021/07/14 13:50:24;;;;;;;4.32;1.90;;;;;;;;;;5009927;28;20022;-69
2021/07/14 13:53:01;;;;;;;6.30;2.45;;;;;;;;;;5011303;28;20033;-69
2021/07/14 13:55:28;;;;;;;3.65;1.48;;;;;;;;;;5006883;28;20034;-69
2021/07/14 13:58:15;;;;;;;5.38;1.95;;;;;;;;;;5012432;28;20541;-70
2021/07/14 14:00:56;;;;;;;4.68;1.35;;;;;;;;;;5009012;28;20037;-68
2021/07/14 14:03:23;;;;;;;5.45;1.50;;;;;;;;;;5009816;28;20028;-68
2021/07/14 14:06:10;;;;;;;4.40;1.48;;;;;;;;;;5009184;28;20018;-68
2021/07/14 14:08:37;;;;;;;7.43;1.70;;;;;;;;;;4996221;28;20515;-69
2021/07/14 14:11:11;;;;;;;4.63;2.40;;;;;;;;;;5011745;28;20029;-68
2021/07/14 14:13:41;;;;;;;6.35;2.00;;;;;;;;;;5008316;28;20050;-69
2021/07/14 14:16:08;;;;;;;4.75;1.83;;;;;;;;;;5019458;28;20014;-69
2021/07/14 14:18:35;;;;;;;4.32;1.70;;;;;;;;;;5010481;28;20026;-69
2021/07/14 14:21:04;;;;;;;7.88;1.40;;;;;;;;;;4997388;28;20491;-69
2021/07/14 14:23:32;;;;;;;9.70;2.08;;;;;;;;;;5012394;28;20038;-69
2021/07/14 14:26:01;;;;;;;8.57;2.65;;;;;;;;;;5010849;28;20033;-69
2021/07/14 14:28:28;;;;;;;3.50;2.08;;;;;;;;;;5007399;28;20036;-70
2021/07/14 14:31:00;;;;;;;6.40;1.60;;;;;;;;;;5010287;28;20084;-69
2021/07/14 14:33:27;;;;;;;6.80;2.05;;;;;;;;;;5010186;28;20021;-69
2021/07/14 14:35:54;;;;;;;4.32;2.85;;;;;;;;;;5010503;28;20018;-69
2021/07/14 14:38:22;;;;;;;5.65;1.58;;;;;;;;;;5010979;28;20037;-69
2021/07/14 14:40:50;;;;;;;6.57;2.22;;;;;;;;;;5010658;28;20022;-69
2021/07/14 14:43:18;;;;;;;5.47;1.52;;;;;;;;;;5001086;28;20026;-69
2021/07/14 14:45:46;;;;;;;2.67;1.08;;;;;;;;;;5006840;28;20049;-68
2021/07/14 14:48:14;;;;;;;3.97;0.95;;;;;;;;;;5010779;28;20038;-68
2021/07/14 14:50:43;;;;;;;2.67;1.35;;;;;;;;;;5009198;28;20068;-68
2021/07/14 14:53:10;;;;;;;5.53;1.33;;;;;;;;;;5011595;28;20077;-69
2021/07/14 14:55:38;;;;;;;3.60;1.45;;;;;;;;;;5010258;28;20357;-69
2021/07/14 14:58:05;;;;;;;3.80;1.08;;;;;;;;;;5011888;28;20066;-69
2021/07/14 15:00:32;;;;;;;2.60;1.35;;;;;;;;;;5009198;28;20437;-70
2021/07/14 15:03:01;;;;;;;3.78;1.10;;;;;;;;;;5011586;28;20021;-69